• Join FlightAware (Why Join?)
  • Login
  • US Flag 
 
12:44AM EST


 

Airport Tracker/Info


-or-


 

Live Flight TrackerFlight Track Log ✈ CTL312 ✈ 23-Apr-2013 ✈ KBKL - KPTK

Flight Track Log - Related Links

Times and Time Zones

All times are in EDT time to prevent confusion due to time zone crossing. See the CTL312 flight status page for this flight to view local times or setup timezone preferences in your user account.

Time Position Orientation Groundspeed Altitude Reporting Facility
EDT Latitude Longitude Course Direction KTS MPH feet Rate Location/Type
09:43PM 41.5125 -81.6978 309° West 147 169 900  Level Cleveland Center
09:44PM 41.5228 -81.7147 309° West 149 171 1,100 600 Climbing Cleveland Center
09:45PM 41.5664 -81.7378 338° Northwest 184 212 1,800 540 Climbing Cleveland Center
09:46PM 41.5972 -81.7853 311° West 162 186 2,300 480 Climbing Cleveland Center
09:47PM 41.6175 -81.8442 295° West 165 190 2,900 480 Climbing Cleveland Center
09:48PM 41.6333 -81.9000 291° West 159 183 3,400 540 Climbing Cleveland Center
09:49PM 41.6517 -81.9531 295° West 158 182 4,000 240 Climbing Cleveland Center
09:50PM 41.6697 -82.0147 291° West 164 189 4,000  Level Cleveland Center
09:51PM 41.6833 -82.0706 288° West 161 185 4,000  Level Cleveland Center
09:52PM 41.6994 -82.1267 291° West 160 184 4,000  Level Cleveland Center
09:53PM 41.7111 -82.1825 286° West 162 186 4,000  Level Cleveland Center
09:54PM 41.7311 -82.2386 296° West 163 188 4,000  Level Cleveland Center
09:55PM 41.7469 -82.3058 288° West 163 188 4,100  Climbing Cleveland Center
09:56PM 41.7647 -82.3619 293° West 162 186 4,100  Level Cleveland Center
09:57PM 41.7764 -82.4181 286° West 160 184 4,100  Level Cleveland Center
09:58PM 41.7881 -82.4769 285° West 160 184 4,100  Level Cleveland Center
09:59PM 41.7917 -82.4992 282° West 159 183 4,100  Level Cleveland Center
09:59PM 41.8036 -82.5386 292° West 162 186 4,100  Level Cleveland Center
10:00PM 41.8211 -82.6033 290° West 164 189 4,100  Level Cleveland Center
10:01PM 41.8331 -82.6453 291° West 163 188 4,100  Level Cleveland Center
10:02PM 41.8678 -82.6856 319° Northwest 191 220 4,100  Level Cleveland Center
10:03PM 41.9131 -82.7122 336° Northwest 186 214 4,100  Level Cleveland Center
10:04PM 41.9664 -82.7531 330° Northwest 183 211 4,100  Level Cleveland Center
10:05PM 41.9975 -82.7736 334° Northwest 182 209 4,100  Level Cleveland Center
10:06PM 42.0489 -82.8117 331° Northwest 181 208 4,100  Level Cleveland Center
10:07PM 42.0961 -82.8414 335° Northwest 181 208 4,100  Level Cleveland Center
10:08PM 42.1433 -82.8739 333° Northwest 182 209 4,100  Level Cleveland Center
10:09PM 42.1867 -82.9006 335° Northwest 179 206 4,100  Level Cleveland Center
10:10PM 42.2319 -82.9333 332° Northwest 179 206 4,100  Level Cleveland Center
10:11PM 42.2792 -82.9686 331° Northwest 177 204 4,100  Level Cleveland Center
10:12PM 42.3222 -82.9983 333° Northwest 178 205 4,100  Level Cleveland Center
10:13PM 42.3653 -83.0281 333° Northwest 178 205 4,100  Level Cleveland Center
10:14PM 42.4147 -83.0608 334° Northwest 182 209 4,100 -60 Level Cleveland Center
10:15PM 42.4578 -83.0936 331° Northwest 180 207 4,000 -360 Descending Cleveland Center
10:16PM 42.4964 -83.1344 322° Northwest 182 209 3,500 -420 Descending Cleveland Center
10:17PM 42.5331 -83.1839 315° West 178 205 3,200 -240 Descending Cleveland Center
10:18PM 42.5611 -83.2217 315° West 169 194 3,100 -300 Descending Cleveland Center
10:19PM 42.5956 -83.2739 312° West 165 190 2,600 -480 Descending Cleveland Center
10:20PM 42.6256 -83.3206 311° West 158 182 2,200 -360 Descending Cleveland Center
10:21PM 42.6475 -83.3667 303° West 144 166 1,900 -300 Descending Cleveland Center
10:23PM 42.6500 -83.4167 304° West  Level FlightAware Approximate
10:30PM 42.6656 -83.4205 304° West  Level Estimated
10:31PM 42.6656 -83.4205 304° West  Level Estimated
10:32PM 42.6656 -83.4205 304° West  Level Estimated